Portada
METAR-TAF:

METAR-TAF

Aeropuertos :

Aeropuerto de Vigo

Vigo, España

latitud: 42-13N, longitud: 008-38W, altitud: 264 m

Observación

El informe se hizo hace 18 minutos, a las 09:00 UTC
Viento 7 kt del sur-suroeste, variando entre sur y oeste-suroeste
Temperatura 9°C
Humedad 93%
Presión 1026 hPa
Visibilidad 10 km o más
Escasas nubes a una altura de 200 ft

METAR: LEVX 270900Z 21007KT 170V240 9999 FEW002 09/08 Q1026 NOSIG

Hora: 10:18 (09:18 UTC)

Pronóstico

El informe se hizo hace 4 horas y 18 minutos, a las 05:00 UTC
Pronóstico válido del 27 a las 06 UTC al 28 a las 06 UTC
Viento 5 kt con dirección variable
Visibilidad 10 km o más
sin nubes por debajo de 1500 m y sin presencia de cumulonimbus.
Probabilidad 30% :
Temporalmente
del 27 a las 06 UTC al 27 a las 08 UTC
Visibilidad: 0350 m
a una altura de 100 ft
niebla, niebla en bancos

TAF: LEVX 270500Z 2706/2806 VRB05KT CAVOK TX19/2715Z TN08/2806Z PROB30 TEMPO 2706/2708 0350 FG BCFG VV001

Observaciones y pronósticos meteorológicos de más de 4000 aeropuertos (mensajes METAR y TAF).

Los puntos amarillos y rojos representan las estaciones disponibles.

Ponga el ratón en el punto deseado para ver el nombre de la estación.

Haga clic para ver las observaciones y los pronósticos meteorológicos.

Para cambiar el mapa : haga clic en los botones verdes con una cruz de color negro para hacer un zoom, en el botón verde con un guión para alejar o en las flechas verdes para mapas adyacentes.


METAR-TAF: